Terminal Aerodrome Forecast
Issued by NWS Springfield, MO

Home | Current Version | Previous Version | Text Only | Print | Product List | Glossary On
Versions: 1 2 3 4 5 6 7 8 9 10 11 12 13 14 15 16 17 18 19 20
000
FTUS43 KSGF 231700
TAFSGF
TAF
KSGF 231720Z 2318/2418 17008KT P6SM SCT025 BKN050 OVC070
      TEMPO 2318/2320 -SHRA SCT010 BKN025 OVC050
     FM232000 19006KT P6SM SCT010 BKN025 OVC050
     FM240000 18005KT P6SM SCT025 BKN050
     FM240800 20004KT 4SM BR FEW007
     FM241500 20007KT P6SM SKC=

USA.gov is the U.S. government's official web portal to all federal, state and local government web resources and services.